Aérodrome :
LOGIN :

S'inscrire | Disclaimer

   EN    FR    IT 

 










Légende :    VFR   VFR Marginal   IFR   IFR Intensif   IFR Très Intensif
Visi : 
Plafond : 
>= 8 km
>= 3000ft
5 à 8 km
1000 à 3000 ft
1500m à 5 km
500 à 1000 ft
800 à 1500m
200 à 500 ft
< 800m
< 200 ft
Symboles :   Orages  Brouillard  Fortes neiges  Fortes précipitations  Vent > 20 kt
SIGMETs :   Divers  Orages  Givrage  Turbulence  Onde Orograph.  Cendres Volcan.







- Altitude de l'aérodrome : 112 ft
- Code IATA : KIR


EIKY - Kerry Farranfore

DERNIER METAR :
  • 170730Z VRB02KT 9999 FEW031 06/05 Q1016

METARs EXPIRÉS :
  • 170700Z 30003KT 240V360 9999 FEW026 08/06 Q1016
  • 170630Z 24007KT 9999 FEW030 07/05 Q1015
  • 170600Z 24003KT 220V280 9999 FEW025 08/06 Q1015
  • 170530Z 20005KT 180V250 9999 FEW025 07/05 Q1015

TAF TAF EIKY
Valide du 17 à 06h jusqu'au 17 à 15h UTC


170500Z 1706/1715 24007KT 9999 BKN020
BECMG 1712/1715 VRB03KT
Pas de NOTAMs connus pour ce terrain.
1 SIGMET publié pour la FIR Shannon (EISN) :
 
Onde orographique forte
EISN SIGMET 04 VALID 170500/170800 EINN
EISN SHANNON FIR SEV MTW FCST N OF N5300 AND E OF W01030 FL050/200 MOV NE AT 25KT WKN=



MET'MAP, la Météo Aéronautique d'un coup d'oeil ! - Copyright ORBIFLY Décembre 2007 - Disclaimer

ORBIFLY MET'MAP TEAM :

Programmation & Développement : Alexandra Zaïnal
Conception & Développement : Baudouin d'Aumeries
Co-Programmation & Développement : Marc-Olivier Méhu
Soutien technique & logistique : Manuel Goepfert

Contact : metmap@orbifly.com




SOURCES & CREDITS :

   NOAA